sensor_id;sensor_type;location;lat;lon;timestamp;P1;durP1;ratioP1;P2;durP2;ratioP2
66298;SDS011;53098;47.658;8.578;2023-06-10T00:02:15;8.30;;;3.20;;
66298;SDS011;53098;47.658;8.578;2023-06-10T00:04:41;7.30;;;2.90;;
66298;SDS011;53098;47.658;8.578;2023-06-10T00:07:06;7.30;;;2.90;;
66298;SDS011;53098;47.658;8.578;2023-06-10T00:09:31;13.27;;;3.80;;
66298;SDS011;53098;47.658;8.578;2023-06-10T00:11:56;7.70;;;3.30;;
66298;SDS011;53098;47.658;8.578;2023-06-10T00:14:22;7.13;;;3.30;;
66298;SDS011;53098;47.658;8.578;2023-06-10T00:16:47;8.33;;;3.30;;
66298;SDS011;53098;47.658;8.578;2023-06-10T00:19:12;12.47;;;3.27;;
66298;SDS011;53098;47.658;8.578;2023-06-10T00:21:37;7.03;;;3.00;;
66298;SDS011;53098;47.658;8.578;2023-06-10T00:24:03;8.63;;;3.77;;
66298;SDS011;53098;47.658;8.578;2023-06-10T00:26:29;8.30;;;3.50;;
66298;SDS011;53098;47.658;8.578;2023-06-10T00:28:54;6.77;;;2.90;;
66298;SDS011;53098;47.658;8.578;2023-06-10T00:31:19;9.00;;;3.40;;
66298;SDS011;53098;47.658;8.578;2023-06-10T00:33:44;7.23;;;2.77;;
66298;SDS011;53098;47.658;8.578;2023-06-10T00:36:10;7.03;;;3.40;;
66298;SDS011;53098;47.658;8.578;2023-06-10T00:38:35;7.70;;;3.50;;
66298;SDS011;53098;47.658;8.578;2023-06-10T00:41:00;9.47;;;3.30;;
66298;SDS011;53098;47.658;8.578;2023-06-10T00:43:25;7.10;;;3.50;;
66298;SDS011;53098;47.658;8.578;2023-06-10T00:45:51;7.60;;;3.50;;
66298;SDS011;53098;47.658;8.578;2023-06-10T00:48:17;6.60;;;3.25;;
66298;SDS011;53098;47.658;8.578;2023-06-10T00:50:42;9.20;;;3.15;;
66298;SDS011;53098;47.658;8.578;2023-06-10T00:53:07;9.77;;;3.70;;
66298;SDS011;53098;47.658;8.578;2023-06-10T00:55:33;6.63;;;3.42;;
66298;SDS011;53098;47.658;8.578;2023-06-10T00:57:58;7.63;;;3.10;;
66298;SDS011;53098;47.658;8.578;2023-06-10T01:00:24;9.02;;;3.58;;
66298;SDS011;53098;47.658;8.578;2023-06-10T01:02:50;6.88;;;3.38;;
66298;SDS011;53098;47.658;8.578;2023-06-10T01:05:15;6.57;;;3.37;;
66298;SDS011;53098;47.658;8.578;2023-06-10T01:10:20;8.13;;;3.60;;
66298;SDS011;53098;47.658;8.578;2023-06-10T01:13:01;8.30;;;3.67;;
66298;SDS011;53098;47.658;8.578;2023-06-10T01:15:27;10.30;;;3.80;;
66298;SDS011;53098;47.658;8.578;2023-06-10T01:18:02;9.43;;;3.90;;
66298;SDS011;53098;47.658;8.578;2023-06-10T01:20:28;7.15;;;3.30;;
66298;SDS011;53098;47.658;8.578;2023-06-10T01:22:54;10.77;;;3.50;;
66298;SDS011;53098;47.658;8.578;2023-06-10T01:25:19;7.25;;;3.30;;
66298;SDS011;53098;47.658;8.578;2023-06-10T01:27:45;8.50;;;3.28;;
66298;SDS011;53098;47.658;8.578;2023-06-10T01:30:14;7.95;;;3.58;;
66298;SDS011;53098;47.658;8.578;2023-06-10T01:32:44;7.97;;;3.70;;
66298;SDS011;53098;47.658;8.578;2023-06-10T01:35:10;6.63;;;3.53;;
66298;SDS011;53098;47.658;8.578;2023-06-10T01:37:36;9.68;;;3.72;;
66298;SDS011;53098;47.658;8.578;2023-06-10T01:40:02;8.10;;;3.53;;
66298;SDS011;53098;47.658;8.578;2023-06-10T01:42:27;8.15;;;3.28;;
66298;SDS011;53098;47.658;8.578;2023-06-10T01:44:53;8.50;;;3.50;;
66298;SDS011;53098;47.658;8.578;2023-06-10T01:47:18;6.00;;;3.13;;
66298;SDS011;53098;47.658;8.578;2023-06-10T01:49:43;8.97;;;3.43;;
66298;SDS011;53098;47.658;8.578;2023-06-10T01:52:09;7.20;;;3.37;;
66298;SDS011;53098;47.658;8.578;2023-06-10T01:54:34;6.95;;;3.53;;
66298;SDS011;53098;47.658;8.578;2023-06-10T01:56:59;7.60;;;3.80;;
66298;SDS011;53098;47.658;8.578;2023-06-10T01:59:24;7.37;;;3.60;;
66298;SDS011;53098;47.658;8.578;2023-06-10T02:01:49;8.67;;;3.60;;
66298;SDS011;53098;47.658;8.578;2023-06-10T02:04:15;9.30;;;3.43;;
66298;SDS011;53098;47.658;8.578;2023-06-10T02:06:40;8.50;;;3.57;;
66298;SDS011;53098;47.658;8.578;2023-06-10T02:09:05;8.03;;;3.50;;
66298;SDS011;53098;47.658;8.578;2023-06-10T02:11:31;9.32;;;3.90;;
66298;SDS011;53098;47.658;8.578;2023-06-10T02:13:56;8.53;;;3.80;;
66298;SDS011;53098;47.658;8.578;2023-06-10T02:16:21;9.47;;;3.70;;
66298;SDS011;53098;47.658;8.578;2023-06-10T02:18:46;8.27;;;3.73;;
66298;SDS011;53098;47.658;8.578;2023-06-10T02:21:12;7.50;;;4.10;;
66298;SDS011;53098;47.658;8.578;2023-06-10T02:23:37;8.88;;;3.97;;
66298;SDS011;53098;47.658;8.578;2023-06-10T02:26:02;10.40;;;3.80;;
66298;SDS011;53098;47.658;8.578;2023-06-10T02:28:28;8.07;;;3.60;;
66298;SDS011;53098;47.658;8.578;2023-06-10T02:30:53;8.85;;;3.35;;
66298;SDS011;53098;47.658;8.578;2023-06-10T02:33:18;8.53;;;4.67;;
66298;SDS011;53098;47.658;8.578;2023-06-10T02:35:43;7.27;;;3.90;;
66298;SDS011;53098;47.658;8.578;2023-06-10T02:38:08;9.53;;;4.00;;
66298;SDS011;53098;47.658;8.578;2023-06-10T02:40:34;7.03;;;3.77;;
66298;SDS011;53098;47.658;8.578;2023-06-10T02:42:59;8.23;;;3.80;;
66298;SDS011;53098;47.658;8.578;2023-06-10T02:45:24;8.37;;;4.43;;
66298;SDS011;53098;47.658;8.578;2023-06-10T02:47:50;7.85;;;4.15;;
66298;SDS011;53098;47.658;8.578;2023-06-10T02:50:15;8.33;;;3.90;;
66298;SDS011;53098;47.658;8.578;2023-06-10T02:52:40;9.52;;;3.65;;
66298;SDS011;53098;47.658;8.578;2023-06-10T02:55:06;7.25;;;3.75;;
66298;SDS011;53098;47.658;8.578;2023-06-10T02:57:31;8.48;;;3.63;;
66298;SDS011;53098;47.658;8.578;2023-06-10T02:59:56;8.90;;;4.17;;
66298;SDS011;53098;47.658;8.578;2023-06-10T03:02:22;7.53;;;3.90;;
66298;SDS011;53098;47.658;8.578;2023-06-10T03:04:47;8.85;;;4.22;;
66298;SDS011;53098;47.658;8.578;2023-06-10T03:07:12;7.55;;;4.20;;
66298;SDS011;53098;47.658;8.578;2023-06-10T03:09:37;8.73;;;4.00;;
66298;SDS011;53098;47.658;8.578;2023-06-10T03:12:03;8.80;;;4.20;;
66298;SDS011;53098;47.658;8.578;2023-06-10T03:14:28;8.23;;;4.30;;
66298;SDS011;53098;47.658;8.578;2023-06-10T03:16:54;9.00;;;4.47;;
66298;SDS011;53098;47.658;8.578;2023-06-10T03:19:19;7.73;;;4.10;;
66298;SDS011;53098;47.658;8.578;2023-06-10T03:21:44;8.80;;;4.67;;
66298;SDS011;53098;47.658;8.578;2023-06-10T03:24:09;7.65;;;4.30;;
66298;SDS011;53098;47.658;8.578;2023-06-10T03:26:35;10.18;;;4.88;;
66298;SDS011;53098;47.658;8.578;2023-06-10T03:29:00;9.07;;;4.53;;
66298;SDS011;53098;47.658;8.578;2023-06-10T03:31:25;8.27;;;4.07;;
66298;SDS011;53098;47.658;8.578;2023-06-10T03:33:50;7.93;;;4.33;;
66298;SDS011;53098;47.658;8.578;2023-06-10T03:36:16;7.87;;;4.40;;
66298;SDS011;53098;47.658;8.578;2023-06-10T03:38:41;9.63;;;4.17;;
66298;SDS011;53098;47.658;8.578;2023-06-10T03:41:06;8.17;;;4.30;;
66298;SDS011;53098;47.658;8.578;2023-06-10T03:43:31;10.00;;;4.63;;
66298;SDS011;53098;47.658;8.578;2023-06-10T03:45:57;11.30;;;4.27;;
66298;SDS011;53098;47.658;8.578;2023-06-10T03:48:22;7.43;;;4.17;;
66298;SDS011;53098;47.658;8.578;2023-06-10T03:50:47;6.70;;;3.63;;
66298;SDS011;53098;47.658;8.578;2023-06-10T03:53:12;7.63;;;4.43;;
66298;SDS011;53098;47.658;8.578;2023-06-10T03:55:38;15.60;;;4.60;;
66298;SDS011;53098;47.658;8.578;2023-06-10T03:58:03;10.18;;;4.50;;
66298;SDS011;53098;47.658;8.578;2023-06-10T04:00:28;10.50;;;4.37;;
66298;SDS011;53098;47.658;8.578;2023-06-10T04:02:54;8.30;;;4.53;;
66298;SDS011;53098;47.658;8.578;2023-06-10T04:05:20;11.07;;;4.72;;
66298;SDS011;53098;47.658;8.578;2023-06-10T04:07:45;10.37;;;4.10;;
66298;SDS011;53098;47.658;8.578;2023-06-10T04:10:11;8.13;;;4.17;;
66298;SDS011;53098;47.658;8.578;2023-06-10T04:12:36;9.73;;;4.40;;
66298;SDS011;53098;47.658;8.578;2023-06-10T04:15:02;10.75;;;4.25;;
66298;SDS011;53098;47.658;8.578;2023-06-10T04:17:27;9.18;;;4.45;;
66298;SDS011;53098;47.658;8.578;2023-06-10T04:19:52;10.27;;;4.60;;
66298;SDS011;53098;47.658;8.578;2023-06-10T04:22:18;8.90;;;4.60;;
66298;SDS011;53098;47.658;8.578;2023-06-10T04:24:43;9.20;;;4.47;;
66298;SDS011;53098;47.658;8.578;2023-06-10T04:27:08;7.83;;;4.33;;
66298;SDS011;53098;47.658;8.578;2023-06-10T04:29:34;9.07;;;4.40;;
66298;SDS011;53098;47.658;8.578;2023-06-10T04:31:59;8.73;;;4.17;;
66298;SDS011;53098;47.658;8.578;2023-06-10T04:34:24;8.07;;;4.20;;
66298;SDS011;53098;47.658;8.578;2023-06-10T04:36:50;8.80;;;4.70;;
66298;SDS011;53098;47.658;8.578;2023-06-10T04:39:15;9.40;;;4.43;;
66298;SDS011;53098;47.658;8.578;2023-06-10T04:41:40;10.67;;;4.67;;
66298;SDS011;53098;47.658;8.578;2023-06-10T04:44:05;13.13;;;4.37;;
66298;SDS011;53098;47.658;8.578;2023-06-10T04:46:31;9.07;;;4.60;;
66298;SDS011;53098;47.658;8.578;2023-06-10T04:48:56;8.13;;;4.33;;
66298;SDS011;53098;47.658;8.578;2023-06-10T04:51:21;9.93;;;4.77;;
66298;SDS011;53098;47.658;8.578;2023-06-10T04:53:46;11.70;;;4.50;;
66298;SDS011;53098;47.658;8.578;2023-06-10T04:56:12;8.13;;;4.53;;
66298;SDS011;53098;47.658;8.578;2023-06-10T04:58:37;8.03;;;4.53;;
66298;SDS011;53098;47.658;8.578;2023-06-10T05:01:02;8.47;;;4.40;;
66298;SDS011;53098;47.658;8.578;2023-06-10T05:03:27;10.77;;;5.00;;
66298;SDS011;53098;47.658;8.578;2023-06-10T05:05:53;9.03;;;4.23;;
66298;SDS011;53098;47.658;8.578;2023-06-10T05:08:18;8.93;;;4.80;;
66298;SDS011;53098;47.658;8.578;2023-06-10T05:10:43;8.47;;;4.60;;
66298;SDS011;53098;47.658;8.578;2023-06-10T05:13:08;12.73;;;4.70;;
66298;SDS011;53098;47.658;8.578;2023-06-10T05:15:34;8.33;;;4.47;;
66298;SDS011;53098;47.658;8.578;2023-06-10T05:17:59;9.17;;;4.90;;
66298;SDS011;53098;47.658;8.578;2023-06-10T05:20:24;9.10;;;5.00;;
66298;SDS011;53098;47.658;8.578;2023-06-10T05:22:50;8.82;;;4.68;;
66298;SDS011;53098;47.658;8.578;2023-06-10T05:25:15;8.47;;;4.70;;
66298;SDS011;53098;47.658;8.578;2023-06-10T05:27:40;9.63;;;4.57;;
66298;SDS011;53098;47.658;8.578;2023-06-10T05:30:05;10.40;;;5.37;;
66298;SDS011;53098;47.658;8.578;2023-06-10T05:32:31;8.80;;;4.43;;
66298;SDS011;53098;47.658;8.578;2023-06-10T05:34:56;9.83;;;5.00;;
66298;SDS011;53098;47.658;8.578;2023-06-10T05:37:21;9.47;;;4.80;;
66298;SDS011;53098;47.658;8.578;2023-06-10T05:39:47;8.17;;;5.00;;
66298;SDS011;53098;47.658;8.578;2023-06-10T05:42:12;10.10;;;5.77;;
66298;SDS011;53098;47.658;8.578;2023-06-10T05:44:38;9.38;;;5.32;;
66298;SDS011;53098;47.658;8.578;2023-06-10T05:47:03;9.70;;;5.27;;
66298;SDS011;53098;47.658;8.578;2023-06-10T05:49:28;10.05;;;5.25;;
66298;SDS011;53098;47.658;8.578;2023-06-10T05:51:54;9.43;;;5.27;;
66298;SDS011;53098;47.658;8.578;2023-06-10T05:54:19;10.57;;;5.00;;
66298;SDS011;53098;47.658;8.578;2023-06-10T05:56:44;8.10;;;4.43;;
66298;SDS011;53098;47.658;8.578;2023-06-10T05:59:09;9.87;;;5.03;;
66298;SDS011;53098;47.658;8.578;2023-06-10T06:01:35;9.97;;;4.70;;
66298;SDS011;53098;47.658;8.578;2023-06-10T06:04:00;9.57;;;5.03;;
66298;SDS011;53098;47.658;8.578;2023-06-10T06:06:26;8.30;;;4.82;;
66298;SDS011;53098;47.658;8.578;2023-06-10T06:08:51;8.77;;;4.80;;
66298;SDS011;53098;47.658;8.578;2023-06-10T06:11:16;9.40;;;5.10;;
66298;SDS011;53098;47.658;8.578;2023-06-10T06:13:41;11.97;;;5.10;;
66298;SDS011;53098;47.658;8.578;2023-06-10T06:16:07;10.13;;;5.20;;
66298;SDS011;53098;47.658;8.578;2023-06-10T06:18:32;7.97;;;4.88;;
66298;SDS011;53098;47.658;8.578;2023-06-10T06:20:57;7.87;;;4.60;;
66298;SDS011;53098;47.658;8.578;2023-06-10T06:23:22;9.33;;;5.20;;
66298;SDS011;53098;47.658;8.578;2023-06-10T06:25:48;7.83;;;4.57;;
66298;SDS011;53098;47.658;8.578;2023-06-10T06:28:13;8.37;;;4.70;;
66298;SDS011;53098;47.658;8.578;2023-06-10T06:30:38;9.13;;;4.97;;
66298;SDS011;53098;47.658;8.578;2023-06-10T06:33:03;7.47;;;4.50;;
66298;SDS011;53098;47.658;8.578;2023-06-10T06:35:32;9.40;;;5.40;;
66298;SDS011;53098;47.658;8.578;2023-06-10T06:37:58;8.05;;;4.75;;
66298;SDS011;53098;47.658;8.578;2023-06-10T06:40:23;10.73;;;5.27;;
66298;SDS011;53098;47.658;8.578;2023-06-10T06:42:48;11.47;;;5.10;;
66298;SDS011;53098;47.658;8.578;2023-06-10T06:45:13;9.00;;;4.77;;
66298;SDS011;53098;47.658;8.578;2023-06-10T06:47:39;8.77;;;4.73;;
66298;SDS011;53098;47.658;8.578;2023-06-10T06:50:04;9.93;;;4.73;;
66298;SDS011;53098;47.658;8.578;2023-06-10T06:52:29;11.10;;;4.97;;
66298;SDS011;53098;47.658;8.578;2023-06-10T06:54:54;8.77;;;5.43;;
66298;SDS011;53098;47.658;8.578;2023-06-10T06:57:20;10.27;;;5.17;;
66298;SDS011;53098;47.658;8.578;2023-06-10T06:59:45;9.07;;;4.90;;
66298;SDS011;53098;47.658;8.578;2023-06-10T07:02:10;9.77;;;5.20;;
66298;SDS011;53098;47.658;8.578;2023-06-10T07:04:36;10.67;;;5.30;;
66298;SDS011;53098;47.658;8.578;2023-06-10T07:07:01;8.88;;;4.72;;
66298;SDS011;53098;47.658;8.578;2023-06-10T07:09:27;8.65;;;4.85;;
66298;SDS011;53098;47.658;8.578;2023-06-10T07:11:52;10.37;;;5.27;;
66298;SDS011;53098;47.658;8.578;2023-06-10T07:14:17;10.57;;;4.77;;
66298;SDS011;53098;47.658;8.578;2023-06-10T07:16:42;9.77;;;5.40;;
66298;SDS011;53098;47.658;8.578;2023-06-10T07:19:08;8.10;;;5.20;;
66298;SDS011;53098;47.658;8.578;2023-06-10T07:21:33;10.30;;;4.77;;
66298;SDS011;53098;47.658;8.578;2023-06-10T07:23:58;8.57;;;4.80;;
66298;SDS011;53098;47.658;8.578;2023-06-10T07:26:23;9.33;;;5.50;;
66298;SDS011;53098;47.658;8.578;2023-06-10T07:28:49;9.30;;;4.87;;
66298;SDS011;53098;47.658;8.578;2023-06-10T07:31:14;11.37;;;5.53;;
66298;SDS011;53098;47.658;8.578;2023-06-10T07:33:39;9.20;;;5.53;;
66298;SDS011;53098;47.658;8.578;2023-06-10T07:36:05;10.63;;;5.43;;
66298;SDS011;53098;47.658;8.578;2023-06-10T07:38:30;10.38;;;5.68;;
66298;SDS011;53098;47.658;8.578;2023-06-10T07:40:55;9.10;;;4.83;;
66298;SDS011;53098;47.658;8.578;2023-06-10T07:43:20;9.07;;;4.90;;
66298;SDS011;53098;47.658;8.578;2023-06-10T07:45:46;9.37;;;5.00;;
66298;SDS011;53098;47.658;8.578;2023-06-10T07:48:11;8.70;;;5.30;;
66298;SDS011;53098;47.658;8.578;2023-06-10T07:50:36;10.45;;;5.15;;
66298;SDS011;53098;47.658;8.578;2023-06-10T07:53:02;9.37;;;4.90;;
66298;SDS011;53098;47.658;8.578;2023-06-10T07:55:27;10.87;;;5.97;;
66298;SDS011;53098;47.658;8.578;2023-06-10T07:57:52;9.17;;;5.57;;
66298;SDS011;53098;47.658;8.578;2023-06-10T08:00:18;8.95;;;5.10;;
66298;SDS011;53098;47.658;8.578;2023-06-10T08:02:43;11.85;;;5.38;;
66298;SDS011;53098;47.658;8.578;2023-06-10T08:05:08;8.57;;;5.17;;
66298;SDS011;53098;47.658;8.578;2023-06-10T08:07:34;12.52;;;4.82;;
66298;SDS011;53098;47.658;8.578;2023-06-10T08:10:00;9.63;;;5.53;;
66298;SDS011;53098;47.658;8.578;2023-06-10T08:12:25;11.85;;;5.72;;
66298;SDS011;53098;47.658;8.578;2023-06-10T08:14:50;9.57;;;5.67;;
66298;SDS011;53098;47.658;8.578;2023-06-10T08:17:15;8.70;;;5.23;;
66298;SDS011;53098;47.658;8.578;2023-06-10T08:19:41;8.90;;;5.90;;
66298;SDS011;53098;47.658;8.578;2023-06-10T08:22:06;10.37;;;5.73;;
66298;SDS011;53098;47.658;8.578;2023-06-10T08:24:31;11.27;;;5.53;;
66298;SDS011;53098;47.658;8.578;2023-06-10T08:26:56;11.03;;;5.63;;
66298;SDS011;53098;47.658;8.578;2023-06-10T08:29:22;9.40;;;5.57;;
66298;SDS011;53098;47.658;8.578;2023-06-10T08:31:47;9.07;;;5.60;;
66298;SDS011;53098;47.658;8.578;2023-06-10T08:34:12;8.93;;;4.93;;
66298;SDS011;53098;47.658;8.578;2023-06-10T08:36:37;11.60;;;5.60;;
66298;SDS011;53098;47.658;8.578;2023-06-10T08:39:03;9.57;;;5.57;;
66298;SDS011;53098;47.658;8.578;2023-06-10T08:41:28;11.83;;;6.47;;
66298;SDS011;53098;47.658;8.578;2023-06-10T08:43:59;10.10;;;5.95;;
66298;SDS011;53098;47.658;8.578;2023-06-10T08:46:28;10.95;;;5.80;;
66298;SDS011;53098;47.658;8.578;2023-06-10T08:48:55;9.70;;;5.88;;
66298;SDS011;53098;47.658;8.578;2023-06-10T08:51:20;11.60;;;5.47;;
66298;SDS011;53098;47.658;8.578;2023-06-10T08:53:50;8.85;;;5.18;;
66298;SDS011;53098;47.658;8.578;2023-06-10T08:56:17;10.35;;;5.10;;
66298;SDS011;53098;47.658;8.578;2023-06-10T08:58:43;10.45;;;5.18;;
66298;SDS011;53098;47.658;8.578;2023-06-10T09:01:09;8.55;;;4.82;;
66298;SDS011;53098;47.658;8.578;2023-06-10T09:03:36;11.80;;;5.30;;
66298;SDS011;53098;47.658;8.578;2023-06-10T09:06:02;9.55;;;5.50;;
66298;SDS011;53098;47.658;8.578;2023-06-10T09:08:29;9.07;;;4.97;;
66298;SDS011;53098;47.658;8.578;2023-06-10T09:10:55;9.25;;;5.07;;
66298;SDS011;53098;47.658;8.578;2023-06-10T09:13:20;9.93;;;4.70;;
66298;SDS011;53098;47.658;8.578;2023-06-10T09:15:45;9.47;;;5.23;;
66298;SDS011;53098;47.658;8.578;2023-06-10T09:18:11;8.73;;;4.80;;
66298;SDS011;53098;47.658;8.578;2023-06-10T09:20:38;11.50;;;5.30;;
66298;SDS011;53098;47.658;8.578;2023-06-10T09:23:03;8.70;;;5.25;;
66298;SDS011;53098;47.658;8.578;2023-06-10T09:25:36;12.60;;;5.63;;
66298;SDS011;53098;47.658;8.578;2023-06-10T09:28:03;9.32;;;4.80;;
66298;SDS011;53098;47.658;8.578;2023-06-10T09:30:29;7.80;;;4.82;;
66298;SDS011;53098;47.658;8.578;2023-06-10T09:32:55;9.27;;;5.38;;
66298;SDS011;53098;47.658;8.578;2023-06-10T09:35:20;11.23;;;5.20;;
66298;SDS011;53098;47.658;8.578;2023-06-10T09:37:46;10.73;;;5.80;;
66298;SDS011;53098;47.658;8.578;2023-06-10T09:40:11;9.70;;;4.87;;
66298;SDS011;53098;47.658;8.578;2023-06-10T09:42:39;9.00;;;5.22;;
66298;SDS011;53098;47.658;8.578;2023-06-10T09:45:04;9.45;;;4.68;;
66298;SDS011;53098;47.658;8.578;2023-06-10T09:47:30;14.55;;;4.90;;
66298;SDS011;53098;47.658;8.578;2023-06-10T09:49:55;8.30;;;4.73;;
66298;SDS011;53098;47.658;8.578;2023-06-10T09:52:21;10.53;;;4.17;;
66298;SDS011;53098;47.658;8.578;2023-06-10T09:54:46;8.30;;;4.45;;
66298;SDS011;53098;47.658;8.578;2023-06-10T09:57:12;8.82;;;5.13;;
66298;SDS011;53098;47.658;8.578;2023-06-10T09:59:37;10.55;;;4.45;;
66298;SDS011;53098;47.658;8.578;2023-06-10T10:02:02;8.60;;;4.07;;
66298;SDS011;53098;47.658;8.578;2023-06-10T10:04:28;8.73;;;4.60;;
66298;SDS011;53098;47.658;8.578;2023-06-10T10:06:53;9.60;;;4.67;;
66298;SDS011;53098;47.658;8.578;2023-06-10T10:09:18;7.93;;;4.20;;
66298;SDS011;53098;47.658;8.578;2023-06-10T10:11:44;12.23;;;5.00;;
66298;SDS011;53098;47.658;8.578;2023-06-10T10:14:09;12.20;;;5.13;;
66298;SDS011;53098;47.658;8.578;2023-06-10T10:16:37;9.40;;;5.18;;
66298;SDS011;53098;47.658;8.578;2023-06-10T10:19:07;10.23;;;5.10;;
66298;SDS011;53098;47.658;8.578;2023-06-10T10:21:34;9.75;;;4.90;;
66298;SDS011;53098;47.658;8.578;2023-06-10T10:24:04;10.00;;;4.95;;
66298;SDS011;53098;47.658;8.578;2023-06-10T10:26:31;8.85;;;5.18;;
66298;SDS011;53098;47.658;8.578;2023-06-10T10:29:16;8.38;;;4.45;;
66298;SDS011;53098;47.658;8.578;2023-06-10T10:31:44;9.15;;;4.38;;
66298;SDS011;53098;47.658;8.578;2023-06-10T10:34:19;9.73;;;4.57;;
66298;SDS011;53098;47.658;8.578;2023-06-10T10:36:46;8.85;;;4.80;;
66298;SDS011;53098;47.658;8.578;2023-06-10T10:39:11;8.50;;;4.47;;
66298;SDS011;53098;47.658;8.578;2023-06-10T10:41:37;10.65;;;4.90;;
66298;SDS011;53098;47.658;8.578;2023-06-10T10:44:03;8.48;;;4.72;;
66298;SDS011;53098;47.658;8.578;2023-06-10T10:46:28;8.50;;;5.07;;
66298;SDS011;53098;47.658;8.578;2023-06-10T10:48:54;9.68;;;4.93;;
66298;SDS011;53098;47.658;8.578;2023-06-10T10:51:22;9.93;;;4.65;;
66298;SDS011;53098;47.658;8.578;2023-06-10T10:59:35;12.27;;;4.95;;
66298;SDS011;53098;47.658;8.578;2023-06-10T11:02:07;13.85;;;5.00;;
66298;SDS011;53098;47.658;8.578;2023-06-10T11:04:33;8.27;;;4.93;;
66298;SDS011;53098;47.658;8.578;2023-06-10T11:07:04;11.90;;;4.83;;
66298;SDS011;53098;47.658;8.578;2023-06-10T11:09:30;8.68;;;4.65;;
66298;SDS011;53098;47.658;8.578;2023-06-10T11:11:56;14.93;;;4.97;;
66298;SDS011;53098;47.658;8.578;2023-06-10T11:14:28;8.18;;;4.22;;
66298;SDS011;53098;47.658;8.578;2023-06-10T11:16:54;8.32;;;4.68;;
66298;SDS011;53098;47.658;8.578;2023-06-10T11:19:31;9.23;;;4.68;;
66298;SDS011;53098;47.658;8.578;2023-06-10T11:22:03;9.45;;;4.50;;
66298;SDS011;53098;47.658;8.578;2023-06-10T11:24:29;9.38;;;4.82;;
66298;SDS011;53098;47.658;8.578;2023-06-10T11:26:54;9.65;;;4.60;;
66298;SDS011;53098;47.658;8.578;2023-06-10T11:29:19;9.20;;;4.60;;
66298;SDS011;53098;47.658;8.578;2023-06-10T11:31:45;9.37;;;4.70;;
66298;SDS011;53098;47.658;8.578;2023-06-10T11:34:12;8.52;;;4.50;;
66298;SDS011;53098;47.658;8.578;2023-06-10T11:36:38;7.95;;;4.70;;
66298;SDS011;53098;47.658;8.578;2023-06-10T11:39:04;8.07;;;4.38;;
66298;SDS011;53098;47.658;8.578;2023-06-10T11:41:30;8.65;;;5.18;;
66298;SDS011;53098;47.658;8.578;2023-06-10T11:44:12;7.68;;;4.70;;
66298;SDS011;53098;47.658;8.578;2023-06-10T11:46:37;10.73;;;4.85;;
66298;SDS011;53098;47.658;8.578;2023-06-10T11:49:03;7.50;;;4.63;;
66298;SDS011;53098;47.658;8.578;2023-06-10T11:51:29;9.40;;;4.35;;
66298;SDS011;53098;47.658;8.578;2023-06-10T11:53:55;9.27;;;4.20;;
66298;SDS011;53098;47.658;8.578;2023-06-10T11:56:24;7.80;;;4.30;;
66298;SDS011;53098;47.658;8.578;2023-06-10T11:58:56;7.85;;;4.53;;
66298;SDS011;53098;47.658;8.578;2023-06-10T12:01:22;8.90;;;4.53;;
66298;SDS011;53098;47.658;8.578;2023-06-10T12:03:47;7.70;;;4.00;;
66298;SDS011;53098;47.658;8.578;2023-06-10T12:06:12;9.47;;;4.07;;
66298;SDS011;53098;47.658;8.578;2023-06-10T12:08:46;7.60;;;3.80;;
66298;SDS011;53098;47.658;8.578;2023-06-10T12:11:12;9.15;;;4.60;;
66298;SDS011;53098;47.658;8.578;2023-06-10T12:13:37;9.83;;;4.27;;
66298;SDS011;53098;47.658;8.578;2023-06-10T12:16:10;8.15;;;3.97;;
66298;SDS011;53098;47.658;8.578;2023-06-10T12:18:35;9.55;;;4.30;;
66298;SDS011;53098;47.658;8.578;2023-06-10T12:21:00;7.33;;;4.17;;
66298;SDS011;53098;47.658;8.578;2023-06-10T12:23:26;9.52;;;4.30;;
66298;SDS011;53098;47.658;8.578;2023-06-10T12:25:52;8.60;;;4.03;;
66298;SDS011;53098;47.658;8.578;2023-06-10T12:28:18;8.23;;;4.18;;
66298;SDS011;53098;47.658;8.578;2023-06-10T12:30:45;11.20;;;4.18;;
66298;SDS011;53098;47.658;8.578;2023-06-10T12:33:17;11.52;;;4.10;;
66298;SDS011;53098;47.658;8.578;2023-06-10T12:35:49;11.95;;;4.72;;
66298;SDS011;53098;47.658;8.578;2023-06-10T12:38:14;7.50;;;3.90;;
66298;SDS011;53098;47.658;8.578;2023-06-10T12:40:45;7.05;;;3.67;;
66298;SDS011;53098;47.658;8.578;2023-06-10T12:43:10;28.30;;;5.03;;
66298;SDS011;53098;47.658;8.578;2023-06-10T12:45:37;20.70;;;5.20;;
66298;SDS011;53098;47.658;8.578;2023-06-10T12:48:10;9.45;;;4.03;;
66298;SDS011;53098;47.658;8.578;2023-06-10T12:50:36;8.73;;;3.85;;
66298;SDS011;53098;47.658;8.578;2023-06-10T12:53:01;8.25;;;4.03;;
66298;SDS011;53098;47.658;8.578;2023-06-10T12:55:27;8.03;;;4.07;;
66298;SDS011;53098;47.658;8.578;2023-06-10T12:57:52;5.53;;;3.30;;
66298;SDS011;53098;47.658;8.578;2023-06-10T13:00:17;9.40;;;3.50;;
66298;SDS011;53098;47.658;8.578;2023-06-10T13:02:43;7.15;;;3.15;;
66298;SDS011;53098;47.658;8.578;2023-06-10T13:05:08;6.43;;;3.53;;
66298;SDS011;53098;47.658;8.578;2023-06-10T13:07:33;6.63;;;3.47;;
66298;SDS011;53098;47.658;8.578;2023-06-10T13:09:58;6.03;;;3.07;;
66298;SDS011;53098;47.658;8.578;2023-06-10T13:12:25;7.23;;;3.70;;
66298;SDS011;53098;47.658;8.578;2023-06-10T13:14:50;7.13;;;3.47;;
66298;SDS011;53098;47.658;8.578;2023-06-10T13:17:15;7.33;;;3.50;;
66298;SDS011;53098;47.658;8.578;2023-06-10T13:19:41;6.03;;;3.20;;
66298;SDS011;53098;47.658;8.578;2023-06-10T13:22:06;7.83;;;3.63;;
66298;SDS011;53098;47.658;8.578;2023-06-10T13:24:31;6.80;;;3.47;;
66298;SDS011;53098;47.658;8.578;2023-06-10T13:26:56;7.67;;;3.23;;
66298;SDS011;53098;47.658;8.578;2023-06-10T13:29:22;7.33;;;3.43;;
66298;SDS011;53098;47.658;8.578;2023-06-10T13:31:47;9.37;;;4.20;;
66298;SDS011;53098;47.658;8.578;2023-06-10T13:34:12;7.57;;;3.73;;
66298;SDS011;53098;47.658;8.578;2023-06-10T13:36:37;11.73;;;3.43;;
66298;SDS011;53098;47.658;8.578;2023-06-10T13:39:03;6.33;;;3.17;;
66298;SDS011;53098;47.658;8.578;2023-06-10T13:41:28;5.37;;;3.00;;
66298;SDS011;53098;47.658;8.578;2023-06-10T13:43:53;8.93;;;3.60;;
66298;SDS011;53098;47.658;8.578;2023-06-10T13:46:18;7.23;;;2.93;;
66298;SDS011;53098;47.658;8.578;2023-06-10T13:48:44;6.73;;;2.67;;
66298;SDS011;53098;47.658;8.578;2023-06-10T13:51:09;7.73;;;3.10;;
66298;SDS011;53098;47.658;8.578;2023-06-10T13:53:34;8.43;;;2.90;;
66298;SDS011;53098;47.658;8.578;2023-06-10T13:55:59;9.05;;;3.30;;
66298;SDS011;53098;47.658;8.578;2023-06-10T13:58:25;5.37;;;2.93;;
66298;SDS011;53098;47.658;8.578;2023-06-10T14:00:50;5.97;;;2.90;;
66298;SDS011;53098;47.658;8.578;2023-06-10T14:03:15;6.40;;;3.00;;
66298;SDS011;53098;47.658;8.578;2023-06-10T14:05:40;6.23;;;2.93;;
66298;SDS011;53098;47.658;8.578;2023-06-10T14:08:06;7.18;;;2.78;;
66298;SDS011;53098;47.658;8.578;2023-06-10T14:10:31;8.60;;;2.90;;
66298;SDS011;53098;47.658;8.578;2023-06-10T14:12:56;6.72;;;3.05;;
66298;SDS011;53098;47.658;8.578;2023-06-10T14:15:21;6.27;;;3.13;;
66298;SDS011;53098;47.658;8.578;2023-06-10T14:17:47;6.33;;;2.97;;
66298;SDS011;53098;47.658;8.578;2023-06-10T14:20:12;7.30;;;3.63;;
66298;SDS011;53098;47.658;8.578;2023-06-10T14:22:37;8.00;;;2.70;;
66298;SDS011;53098;47.658;8.578;2023-06-10T14:25:03;7.73;;;2.87;;
66298;SDS011;53098;47.658;8.578;2023-06-10T14:27:28;6.30;;;2.97;;
66298;SDS011;53098;47.658;8.578;2023-06-10T14:29:53;6.80;;;2.93;;
66298;SDS011;53098;47.658;8.578;2023-06-10T14:32:18;7.90;;;3.53;;
66298;SDS011;53098;47.658;8.578;2023-06-10T14:34:44;8.10;;;3.30;;
66298;SDS011;53098;47.658;8.578;2023-06-10T14:37:09;6.30;;;3.10;;
66298;SDS011;53098;47.658;8.578;2023-06-10T14:39:34;5.57;;;2.80;;
66298;SDS011;53098;47.658;8.578;2023-06-10T14:41:59;5.43;;;2.87;;
66298;SDS011;53098;47.658;8.578;2023-06-10T14:44:24;5.17;;;2.63;;
66298;SDS011;53098;47.658;8.578;2023-06-10T14:46:50;6.10;;;2.67;;